sensor_id;sensor_type;location;lat;lon;timestamp;P1;durP1;ratioP1;P2;durP2;ratioP2
14116;SDS011;7137;51.436;6.544;2023-02-26T00:01:01;4.90;;;1.63;;
14116;SDS011;7137;51.436;6.544;2023-02-26T00:04:03;4.13;;;1.67;;
14116;SDS011;7137;51.436;6.544;2023-02-26T00:07:07;4.80;;;1.67;;
14116;SDS011;7137;51.436;6.544;2023-02-26T00:10:10;5.53;;;2.00;;
14116;SDS011;7137;51.436;6.544;2023-02-26T00:13:13;6.27;;;1.67;;
14116;SDS011;7137;51.436;6.544;2023-02-26T00:16:19;3.83;;;1.63;;
14116;SDS011;7137;51.436;6.544;2023-02-26T00:19:26;4.47;;;1.47;;
14116;SDS011;7137;51.436;6.544;2023-02-26T00:22:30;3.53;;;1.50;;
14116;SDS011;7137;51.436;6.544;2023-02-26T00:25:32;4.80;;;1.50;;
14116;SDS011;7137;51.436;6.544;2023-02-26T00:28:33;4.80;;;1.67;;
14116;SDS011;7137;51.436;6.544;2023-02-26T00:31:36;6.07;;;1.50;;
14116;SDS011;7137;51.436;6.544;2023-02-26T00:34:38;5.13;;;1.50;;
14116;SDS011;7137;51.436;6.544;2023-02-26T00:41:05;6.40;;;1.70;;
14116;SDS011;7137;51.436;6.544;2023-02-26T00:44:08;5.30;;;1.80;;
14116;SDS011;7137;51.436;6.544;2023-02-26T00:47:12;4.27;;;1.90;;
14116;SDS011;7137;51.436;6.544;2023-02-26T00:50:21;5.27;;;1.60;;
14116;SDS011;7137;51.436;6.544;2023-02-26T00:53:27;4.70;;;1.60;;
14116;SDS011;7137;51.436;6.544;2023-02-26T00:56:34;6.53;;;1.90;;
14116;SDS011;7137;51.436;6.544;2023-02-26T00:59:36;5.60;;;1.73;;
14116;SDS011;7137;51.436;6.544;2023-02-26T01:02:38;4.73;;;1.43;;
14116;SDS011;7137;51.436;6.544;2023-02-26T01:05:40;4.93;;;2.00;;
14116;SDS011;7137;51.436;6.544;2023-02-26T01:08:43;5.47;;;1.93;;
14116;SDS011;7137;51.436;6.544;2023-02-26T01:11:50;5.83;;;1.77;;
14116;SDS011;7137;51.436;6.544;2023-02-26T01:14:52;5.80;;;1.80;;
14116;SDS011;7137;51.436;6.544;2023-02-26T01:17:55;4.73;;;1.53;;
14116;SDS011;7137;51.436;6.544;2023-02-26T01:21:03;4.07;;;1.70;;
14116;SDS011;7137;51.436;6.544;2023-02-26T01:24:10;5.43;;;1.70;;
14116;SDS011;7137;51.436;6.544;2023-02-26T01:27:15;5.23;;;1.77;;
14116;SDS011;7137;51.436;6.544;2023-02-26T01:30:17;7.10;;;1.80;;
14116;SDS011;7137;51.436;6.544;2023-02-26T01:33:21;6.30;;;1.83;;
14116;SDS011;7137;51.436;6.544;2023-02-26T01:36:29;6.30;;;1.67;;
14116;SDS011;7137;51.436;6.544;2023-02-26T01:39:38;5.70;;;2.03;;
14116;SDS011;7137;51.436;6.544;2023-02-26T01:42:44;6.77;;;1.90;;
14116;SDS011;7137;51.436;6.544;2023-02-26T01:45:54;7.60;;;1.90;;
14116;SDS011;7137;51.436;6.544;2023-02-26T01:49:01;8.23;;;1.90;;
14116;SDS011;7137;51.436;6.544;2023-02-26T01:52:05;6.13;;;1.70;;
14116;SDS011;7137;51.436;6.544;2023-02-26T01:55:09;6.97;;;1.93;;
14116;SDS011;7137;51.436;6.544;2023-02-26T01:58:10;5.87;;;1.90;;
14116;SDS011;7137;51.436;6.544;2023-02-26T02:01:14;5.73;;;1.63;;
14116;SDS011;7137;51.436;6.544;2023-02-26T02:04:15;6.07;;;1.77;;
14116;SDS011;7137;51.436;6.544;2023-02-26T02:07:17;5.37;;;1.93;;
14116;SDS011;7137;51.436;6.544;2023-02-26T02:10:20;7.17;;;2.10;;
14116;SDS011;7137;51.436;6.544;2023-02-26T02:13:28;6.60;;;1.73;;
14116;SDS011;7137;51.436;6.544;2023-02-26T02:16:36;5.97;;;1.83;;
14116;SDS011;7137;51.436;6.544;2023-02-26T02:23:24;4.87;;;1.67;;
14116;SDS011;7137;51.436;6.544;2023-02-26T02:30:05;4.47;;;1.23;;
14116;SDS011;7137;51.436;6.544;2023-02-26T02:33:22;5.07;;;1.53;;
14116;SDS011;7137;51.436;6.544;2023-02-26T02:36:30;5.93;;;1.67;;
14116;SDS011;7137;51.436;6.544;2023-02-26T02:39:37;4.93;;;1.60;;
14116;SDS011;7137;51.436;6.544;2023-02-26T02:42:44;5.07;;;1.60;;
14116;SDS011;7137;51.436;6.544;2023-02-26T02:45:50;6.27;;;1.80;;
14116;SDS011;7137;51.436;6.544;2023-02-26T02:48:57;4.93;;;1.70;;
14116;SDS011;7137;51.436;6.544;2023-02-26T02:52:02;4.77;;;1.70;;
14116;SDS011;7137;51.436;6.544;2023-02-26T02:55:12;6.97;;;1.63;;
14116;SDS011;7137;51.436;6.544;2023-02-26T02:58:17;5.73;;;1.70;;
14116;SDS011;7137;51.436;6.544;2023-02-26T03:01:23;5.23;;;1.60;;
14116;SDS011;7137;51.436;6.544;2023-02-26T03:04:29;5.83;;;1.50;;
14116;SDS011;7137;51.436;6.544;2023-02-26T03:07:31;5.20;;;1.70;;
14116;SDS011;7137;51.436;6.544;2023-02-26T03:10:36;6.07;;;1.60;;
14116;SDS011;7137;51.436;6.544;2023-02-26T03:13:38;4.13;;;1.40;;
14116;SDS011;7137;51.436;6.544;2023-02-26T03:16:45;5.97;;;1.70;;
14116;SDS011;7137;51.436;6.544;2023-02-26T03:20:02;5.20;;;1.73;;
14116;SDS011;7137;51.436;6.544;2023-02-26T03:23:11;5.73;;;1.60;;
14116;SDS011;7137;51.436;6.544;2023-02-26T03:26:19;3.93;;;1.50;;
14116;SDS011;7137;51.436;6.544;2023-02-26T03:29:31;6.70;;;1.80;;
14116;SDS011;7137;51.436;6.544;2023-02-26T03:32:41;5.00;;;1.67;;
14116;SDS011;7137;51.436;6.544;2023-02-26T03:35:50;5.10;;;1.50;;
14116;SDS011;7137;51.436;6.544;2023-02-26T03:38:57;4.77;;;1.60;;
14116;SDS011;7137;51.436;6.544;2023-02-26T03:42:03;5.70;;;1.87;;
14116;SDS011;7137;51.436;6.544;2023-02-26T03:45:09;5.10;;;1.50;;
14116;SDS011;7137;51.436;6.544;2023-02-26T03:48:16;5.60;;;1.50;;
14116;SDS011;7137;51.436;6.544;2023-02-26T03:51:22;4.60;;;1.50;;
14116;SDS011;7137;51.436;6.544;2023-02-26T03:54:27;5.33;;;1.50;;
14116;SDS011;7137;51.436;6.544;2023-02-26T03:57:31;6.47;;;1.57;;
14116;SDS011;7137;51.436;6.544;2023-02-26T04:00:33;5.07;;;1.47;;
14116;SDS011;7137;51.436;6.544;2023-02-26T04:03:39;6.67;;;1.83;;
14116;SDS011;7137;51.436;6.544;2023-02-26T04:06:46;4.93;;;1.50;;
14116;SDS011;7137;51.436;6.544;2023-02-26T04:09:49;6.40;;;1.60;;
14116;SDS011;7137;51.436;6.544;2023-02-26T04:12:52;4.63;;;1.80;;
14116;SDS011;7137;51.436;6.544;2023-02-26T04:15:53;5.13;;;1.37;;
14116;SDS011;7137;51.436;6.544;2023-02-26T04:18:55;6.80;;;1.70;;
14116;SDS011;7137;51.436;6.544;2023-02-26T04:21:58;5.60;;;1.70;;
14116;SDS011;7137;51.436;6.544;2023-02-26T04:24:59;4.87;;;1.40;;
14116;SDS011;7137;51.436;6.544;2023-02-26T04:28:01;6.60;;;1.80;;
14116;SDS011;7137;51.436;6.544;2023-02-26T04:31:03;5.07;;;1.50;;
14116;SDS011;7137;51.436;6.544;2023-02-26T04:34:05;4.37;;;1.37;;
14116;SDS011;7137;51.436;6.544;2023-02-26T04:37:08;5.07;;;1.40;;
14116;SDS011;7137;51.436;6.544;2023-02-26T04:40:10;4.27;;;1.57;;
14116;SDS011;7137;51.436;6.544;2023-02-26T04:43:12;5.80;;;1.30;;
14116;SDS011;7137;51.436;6.544;2023-02-26T04:46:14;5.47;;;1.03;;
14116;SDS011;7137;51.436;6.544;2023-02-26T04:49:15;5.60;;;1.30;;
14116;SDS011;7137;51.436;6.544;2023-02-26T04:52:18;4.03;;;1.60;;
14116;SDS011;7137;51.436;6.544;2023-02-26T04:55:20;4.77;;;1.60;;
14116;SDS011;7137;51.436;6.544;2023-02-26T04:58:21;6.20;;;1.43;;
14116;SDS011;7137;51.436;6.544;2023-02-26T05:01:23;3.20;;;1.20;;
14116;SDS011;7137;51.436;6.544;2023-02-26T05:04:25;3.30;;;1.20;;
14116;SDS011;7137;51.436;6.544;2023-02-26T05:07:27;5.80;;;1.30;;
14116;SDS011;7137;51.436;6.544;2023-02-26T05:10:29;5.17;;;1.30;;
14116;SDS011;7137;51.436;6.544;2023-02-26T05:13:31;4.03;;;1.20;;
14116;SDS011;7137;51.436;6.544;2023-02-26T05:16:32;8.33;;;1.67;;
14116;SDS011;7137;51.436;6.544;2023-02-26T05:19:34;6.17;;;1.30;;
14116;SDS011;7137;51.436;6.544;2023-02-26T05:22:37;3.37;;;1.20;;
14116;SDS011;7137;51.436;6.544;2023-02-26T05:25:39;5.33;;;1.30;;
14116;SDS011;7137;51.436;6.544;2023-02-26T05:28:41;5.43;;;1.23;;
14116;SDS011;7137;51.436;6.544;2023-02-26T05:31:44;3.57;;;1.00;;
14116;SDS011;7137;51.436;6.544;2023-02-26T05:34:46;5.27;;;1.30;;
14116;SDS011;7137;51.436;6.544;2023-02-26T05:37:49;5.03;;;1.37;;
14116;SDS011;7137;51.436;6.544;2023-02-26T05:40:54;4.90;;;1.20;;
14116;SDS011;7137;51.436;6.544;2023-02-26T05:43:57;5.20;;;1.50;;
14116;SDS011;7137;51.436;6.544;2023-02-26T05:46:59;3.53;;;1.20;;
14116;SDS011;7137;51.436;6.544;2023-02-26T05:50:00;5.77;;;1.40;;
14116;SDS011;7137;51.436;6.544;2023-02-26T05:53:03;4.13;;;1.20;;
14116;SDS011;7137;51.436;6.544;2023-02-26T05:56:05;3.73;;;1.40;;
14116;SDS011;7137;51.436;6.544;2023-02-26T05:59:07;5.97;;;1.27;;
14116;SDS011;7137;51.436;6.544;2023-02-26T06:02:10;2.60;;;1.00;;
14116;SDS011;7137;51.436;6.544;2023-02-26T06:05:11;3.60;;;1.30;;
14116;SDS011;7137;51.436;6.544;2023-02-26T06:08:14;2.93;;;1.20;;
14116;SDS011;7137;51.436;6.544;2023-02-26T06:11:16;3.67;;;1.33;;
14116;SDS011;7137;51.436;6.544;2023-02-26T06:14:17;2.93;;;1.10;;
14116;SDS011;7137;51.436;6.544;2023-02-26T06:17:19;5.20;;;1.40;;
14116;SDS011;7137;51.436;6.544;2023-02-26T06:20:21;4.03;;;1.40;;
14116;SDS011;7137;51.436;6.544;2023-02-26T06:23:23;4.53;;;1.30;;
14116;SDS011;7137;51.436;6.544;2023-02-26T06:26:25;3.90;;;1.30;;
14116;SDS011;7137;51.436;6.544;2023-02-26T06:29:27;5.80;;;1.20;;
14116;SDS011;7137;51.436;6.544;2023-02-26T06:32:28;3.23;;;1.00;;
14116;SDS011;7137;51.436;6.544;2023-02-26T06:35:30;2.97;;;1.00;;
14116;SDS011;7137;51.436;6.544;2023-02-26T06:38:33;4.60;;;1.40;;
14116;SDS011;7137;51.436;6.544;2023-02-26T06:41:35;4.13;;;1.10;;
14116;SDS011;7137;51.436;6.544;2023-02-26T06:44:36;5.57;;;1.60;;
14116;SDS011;7137;51.436;6.544;2023-02-26T06:47:38;6.60;;;1.33;;
14116;SDS011;7137;51.436;6.544;2023-02-26T06:50:40;5.00;;;1.30;;
14116;SDS011;7137;51.436;6.544;2023-02-26T06:53:42;4.73;;;1.40;;
14116;SDS011;7137;51.436;6.544;2023-02-26T06:56:44;2.60;;;1.07;;
14116;SDS011;7137;51.436;6.544;2023-02-26T06:59:45;5.60;;;1.10;;
14116;SDS011;7137;51.436;6.544;2023-02-26T07:02:47;7.47;;;1.50;;
14116;SDS011;7137;51.436;6.544;2023-02-26T07:05:49;4.27;;;1.20;;
14116;SDS011;7137;51.436;6.544;2023-02-26T07:08:53;3.70;;;1.10;;
14116;SDS011;7137;51.436;6.544;2023-02-26T07:11:55;4.30;;;1.30;;
14116;SDS011;7137;51.436;6.544;2023-02-26T07:14:56;5.93;;;1.50;;
14116;SDS011;7137;51.436;6.544;2023-02-26T07:17:58;4.90;;;1.30;;
14116;SDS011;7137;51.436;6.544;2023-02-26T07:21:00;3.00;;;1.10;;
14116;SDS011;7137;51.436;6.544;2023-02-26T07:24:03;3.23;;;1.10;;
14116;SDS011;7137;51.436;6.544;2023-02-26T07:27:05;5.77;;;1.53;;
14116;SDS011;7137;51.436;6.544;2023-02-26T07:30:08;3.23;;;1.30;;
14116;SDS011;7137;51.436;6.544;2023-02-26T07:33:10;3.97;;;1.20;;
14116;SDS011;7137;51.436;6.544;2023-02-26T07:36:11;4.83;;;1.30;;
14116;SDS011;7137;51.436;6.544;2023-02-26T07:39:14;6.03;;;1.40;;
14116;SDS011;7137;51.436;6.544;2023-02-26T07:42:16;3.40;;;1.10;;
14116;SDS011;7137;51.436;6.544;2023-02-26T07:45:18;4.53;;;1.50;;
14116;SDS011;7137;51.436;6.544;2023-02-26T07:48:21;4.47;;;1.17;;
14116;SDS011;7137;51.436;6.544;2023-02-26T07:51:23;4.50;;;1.20;;
14116;SDS011;7137;51.436;6.544;2023-02-26T07:54:26;3.63;;;1.20;;
14116;SDS011;7137;51.436;6.544;2023-02-26T07:57:27;5.27;;;1.30;;
14116;SDS011;7137;51.436;6.544;2023-02-26T08:00:29;5.07;;;1.23;;
14116;SDS011;7137;51.436;6.544;2023-02-26T08:03:30;4.07;;;1.30;;
14116;SDS011;7137;51.436;6.544;2023-02-26T08:06:32;4.17;;;1.20;;
14116;SDS011;7137;51.436;6.544;2023-02-26T08:09:35;4.20;;;1.13;;
14116;SDS011;7137;51.436;6.544;2023-02-26T08:12:37;3.73;;;1.10;;
14116;SDS011;7137;51.436;6.544;2023-02-26T08:15:38;3.20;;;1.07;;
14116;SDS011;7137;51.436;6.544;2023-02-26T08:18:42;4.67;;;1.00;;
14116;SDS011;7137;51.436;6.544;2023-02-26T08:21:44;3.63;;;0.83;;
14116;SDS011;7137;51.436;6.544;2023-02-26T08:24:47;3.33;;;1.37;;
14116;SDS011;7137;51.436;6.544;2023-02-26T08:27:48;5.30;;;1.00;;
14116;SDS011;7137;51.436;6.544;2023-02-26T08:30:51;3.50;;;1.10;;
14116;SDS011;7137;51.436;6.544;2023-02-26T08:33:53;3.60;;;0.90;;
14116;SDS011;7137;51.436;6.544;2023-02-26T08:36:55;4.20;;;0.93;;
14116;SDS011;7137;51.436;6.544;2023-02-26T08:39:58;3.20;;;0.70;;
14116;SDS011;7137;51.436;6.544;2023-02-26T08:42:59;6.33;;;1.37;;
14116;SDS011;7137;51.436;6.544;2023-02-26T08:46:03;2.70;;;0.93;;
14116;SDS011;7137;51.436;6.544;2023-02-26T08:49:04;3.60;;;1.30;;
14116;SDS011;7137;51.436;6.544;2023-02-26T08:52:07;2.37;;;0.87;;
14116;SDS011;7137;51.436;6.544;2023-02-26T08:55:10;4.80;;;1.10;;
14116;SDS011;7137;51.436;6.544;2023-02-26T08:58:12;4.77;;;1.20;;
14116;SDS011;7137;51.436;6.544;2023-02-26T09:01:13;2.87;;;1.10;;
14116;SDS011;7137;51.436;6.544;2023-02-26T09:04:15;2.93;;;0.90;;
14116;SDS011;7137;51.436;6.544;2023-02-26T09:07:17;4.60;;;1.30;;
14116;SDS011;7137;51.436;6.544;2023-02-26T09:10:20;4.93;;;1.30;;
14116;SDS011;7137;51.436;6.544;2023-02-26T09:13:21;4.43;;;1.20;;
14116;SDS011;7137;51.436;6.544;2023-02-26T09:16:23;4.53;;;1.17;;
14116;SDS011;7137;51.436;6.544;2023-02-26T09:19:25;2.30;;;0.80;;
14116;SDS011;7137;51.436;6.544;2023-02-26T09:22:26;2.60;;;0.90;;
14116;SDS011;7137;51.436;6.544;2023-02-26T09:25:29;2.73;;;1.07;;
14116;SDS011;7137;51.436;6.544;2023-02-26T09:28:31;2.43;;;0.90;;
14116;SDS011;7137;51.436;6.544;2023-02-26T09:31:32;2.97;;;0.97;;
14116;SDS011;7137;51.436;6.544;2023-02-26T09:34:34;2.93;;;0.90;;
14116;SDS011;7137;51.436;6.544;2023-02-26T09:37:36;2.10;;;0.90;;
14116;SDS011;7137;51.436;6.544;2023-02-26T09:40:41;4.20;;;1.07;;
14116;SDS011;7137;51.436;6.544;2023-02-26T09:43:50;3.47;;;1.00;;
14116;SDS011;7137;51.436;6.544;2023-02-26T09:47:01;4.00;;;1.00;;
14116;SDS011;7137;51.436;6.544;2023-02-26T09:50:10;3.80;;;0.87;;
14116;SDS011;7137;51.436;6.544;2023-02-26T09:53:17;2.10;;;0.80;;
14116;SDS011;7137;51.436;6.544;2023-02-26T09:56:23;2.03;;;0.77;;
14116;SDS011;7137;51.436;6.544;2023-02-26T09:59:26;1.60;;;0.70;;
14116;SDS011;7137;51.436;6.544;2023-02-26T10:02:33;3.37;;;0.77;;
14116;SDS011;7137;51.436;6.544;2023-02-26T10:05:42;5.57;;;0.83;;
14116;SDS011;7137;51.436;6.544;2023-02-26T10:08:52;3.20;;;0.77;;
14116;SDS011;7137;51.436;6.544;2023-02-26T10:12:09;3.43;;;0.83;;
14116;SDS011;7137;51.436;6.544;2023-02-26T10:15:15;2.07;;;0.60;;
14116;SDS011;7137;51.436;6.544;2023-02-26T10:18:22;3.73;;;0.80;;
14116;SDS011;7137;51.436;6.544;2023-02-26T10:21:33;5.00;;;0.80;;
14116;SDS011;7137;51.436;6.544;2023-02-26T10:24:41;6.00;;;1.13;;
14116;SDS011;7137;51.436;6.544;2023-02-26T10:27:49;3.10;;;0.80;;
14116;SDS011;7137;51.436;6.544;2023-02-26T10:30:59;3.30;;;0.87;;
14116;SDS011;7137;51.436;6.544;2023-02-26T10:34:12;2.77;;;0.70;;
14116;SDS011;7137;51.436;6.544;2023-02-26T10:37:22;3.47;;;0.87;;
14116;SDS011;7137;51.436;6.544;2023-02-26T10:40:30;1.90;;;0.80;;
14116;SDS011;7137;51.436;6.544;2023-02-26T10:43:39;3.17;;;1.20;;
14116;SDS011;7137;51.436;6.544;2023-02-26T10:46:44;2.57;;;0.90;;
14116;SDS011;7137;51.436;6.544;2023-02-26T10:49:52;2.73;;;0.60;;
14116;SDS011;7137;51.436;6.544;2023-02-26T10:52:56;1.50;;;0.60;;
14116;SDS011;7137;51.436;6.544;2023-02-26T10:56:00;2.17;;;0.90;;
14116;SDS011;7137;51.436;6.544;2023-02-26T10:59:07;3.20;;;1.00;;
14116;SDS011;7137;51.436;6.544;2023-02-26T11:02:13;1.80;;;0.70;;
14116;SDS011;7137;51.436;6.544;2023-02-26T11:05:33;2.17;;;0.77;;
14116;SDS011;7137;51.436;6.544;2023-02-26T11:08:36;2.03;;;0.70;;
14116;SDS011;7137;51.436;6.544;2023-02-26T11:11:44;5.57;;;1.20;;
14116;SDS011;7137;51.436;6.544;2023-02-26T11:14:48;2.47;;;0.70;;
14116;SDS011;7137;51.436;6.544;2023-02-26T11:17:52;1.20;;;0.53;;
14116;SDS011;7137;51.436;6.544;2023-02-26T11:20:57;2.87;;;0.60;;
14116;SDS011;7137;51.436;6.544;2023-02-26T11:24:01;2.90;;;0.90;;
14116;SDS011;7137;51.436;6.544;2023-02-26T11:27:08;2.23;;;1.03;;
14116;SDS011;7137;51.436;6.544;2023-02-26T11:30:16;1.07;;;0.60;;
14116;SDS011;7137;51.436;6.544;2023-02-26T11:33:21;3.83;;;0.87;;
14116;SDS011;7137;51.436;6.544;2023-02-26T11:36:25;3.20;;;1.07;;
14116;SDS011;7137;51.436;6.544;2023-02-26T11:39:32;1.70;;;0.50;;
14116;SDS011;7137;51.436;6.544;2023-02-26T11:42:36;3.40;;;0.90;;
14116;SDS011;7137;51.436;6.544;2023-02-26T11:45:42;2.90;;;0.90;;
14116;SDS011;7137;51.436;6.544;2023-02-26T11:48:46;3.43;;;0.80;;
14116;SDS011;7137;51.436;6.544;2023-02-26T11:52:04;1.63;;;0.60;;
14116;SDS011;7137;51.436;6.544;2023-02-26T11:55:17;2.70;;;0.90;;
14116;SDS011;7137;51.436;6.544;2023-02-26T11:58:22;3.77;;;0.70;;
14116;SDS011;7137;51.436;6.544;2023-02-26T12:01:27;2.90;;;1.00;;
14116;SDS011;7137;51.436;6.544;2023-02-26T12:04:29;1.83;;;0.80;;
14116;SDS011;7137;51.436;6.544;2023-02-26T12:07:31;2.50;;;0.87;;
14116;SDS011;7137;51.436;6.544;2023-02-26T12:10:34;2.53;;;0.90;;
14116;SDS011;7137;51.436;6.544;2023-02-26T12:13:43;2.03;;;0.60;;
14116;SDS011;7137;51.436;6.544;2023-02-26T12:16:59;3.30;;;1.00;;
14116;SDS011;7137;51.436;6.544;2023-02-26T12:20:12;2.40;;;0.83;;
14116;SDS011;7137;51.436;6.544;2023-02-26T12:23:25;3.00;;;0.80;;
14116;SDS011;7137;51.436;6.544;2023-02-26T12:26:36;3.27;;;0.70;;
14116;SDS011;7137;51.436;6.544;2023-02-26T12:29:45;2.47;;;0.50;;
14116;SDS011;7137;51.436;6.544;2023-02-26T12:36:25;2.87;;;0.90;;
14116;SDS011;7137;51.436;6.544;2023-02-26T12:39:40;1.27;;;0.80;;
14116;SDS011;7137;51.436;6.544;2023-02-26T12:42:51;1.07;;;0.50;;
14116;SDS011;7137;51.436;6.544;2023-02-26T12:46:06;2.07;;;0.80;;
14116;SDS011;7137;51.436;6.544;2023-02-26T12:49:26;3.20;;;0.70;;
14116;SDS011;7137;51.436;6.544;2023-02-26T12:52:54;3.10;;;0.97;;
14116;SDS011;7137;51.436;6.544;2023-02-26T12:56:08;2.70;;;0.90;;
14116;SDS011;7137;51.436;6.544;2023-02-26T12:59:42;1.63;;;0.60;;
14116;SDS011;7137;51.436;6.544;2023-02-26T13:09:58;2.53;;;0.80;;
14116;SDS011;7137;51.436;6.544;2023-02-26T13:13:16;2.27;;;0.63;;
14116;SDS011;7137;51.436;6.544;2023-02-26T13:16:31;2.20;;;0.60;;
14116;SDS011;7137;51.436;6.544;2023-02-26T13:19:41;1.67;;;0.40;;
14116;SDS011;7137;51.436;6.544;2023-02-26T13:22:49;0.93;;;0.50;;
14116;SDS011;7137;51.436;6.544;2023-02-26T13:25:56;1.10;;;0.50;;
14116;SDS011;7137;51.436;6.544;2023-02-26T13:29:01;1.60;;;0.63;;
14116;SDS011;7137;51.436;6.544;2023-02-26T13:32:06;1.70;;;0.60;;
14116;SDS011;7137;51.436;6.544;2023-02-26T13:35:17;2.20;;;0.80;;
14116;SDS011;7137;51.436;6.544;2023-02-26T13:38:23;2.43;;;0.80;;
14116;SDS011;7137;51.436;6.544;2023-02-26T13:41:33;1.70;;;0.70;;
14116;SDS011;7137;51.436;6.544;2023-02-26T13:44:47;2.70;;;0.73;;
14116;SDS011;7137;51.436;6.544;2023-02-26T13:47:58;2.07;;;0.77;;
14116;SDS011;7137;51.436;6.544;2023-02-26T13:51:14;1.83;;;0.80;;
14116;SDS011;7137;51.436;6.544;2023-02-26T13:54:32;2.90;;;0.80;;
14116;SDS011;7137;51.436;6.544;2023-02-26T13:57:42;3.40;;;0.80;;
14116;SDS011;7137;51.436;6.544;2023-02-26T14:00:56;2.17;;;0.97;;
14116;SDS011;7137;51.436;6.544;2023-02-26T14:04:08;1.93;;;0.83;;
14116;SDS011;7137;51.436;6.544;2023-02-26T14:10:54;3.33;;;0.97;;
14116;SDS011;7137;51.436;6.544;2023-02-26T14:14:05;1.20;;;0.60;;
14116;SDS011;7137;51.436;6.544;2023-02-26T14:17:18;1.43;;;0.60;;
14116;SDS011;7137;51.436;6.544;2023-02-26T14:20:36;2.63;;;0.90;;
14116;SDS011;7137;51.436;6.544;2023-02-26T14:23:37;1.77;;;0.60;;
14116;SDS011;7137;51.436;6.544;2023-02-26T14:26:44;2.40;;;0.70;;
14116;SDS011;7137;51.436;6.544;2023-02-26T14:29:56;1.57;;;0.67;;
14116;SDS011;7137;51.436;6.544;2023-02-26T14:33:06;2.27;;;0.70;;
14116;SDS011;7137;51.436;6.544;2023-02-26T14:36:13;1.80;;;0.70;;
14116;SDS011;7137;51.436;6.544;2023-02-26T14:39:22;2.00;;;0.70;;
14116;SDS011;7137;51.436;6.544;2023-02-26T14:42:30;3.03;;;0.80;;
14116;SDS011;7137;51.436;6.544;2023-02-26T14:45:35;1.37;;;0.73;;
14116;SDS011;7137;51.436;6.544;2023-02-26T14:48:38;2.47;;;0.80;;
14116;SDS011;7137;51.436;6.544;2023-02-26T14:51:42;3.17;;;0.80;;
14116;SDS011;7137;51.436;6.544;2023-02-26T14:55:00;2.03;;;0.80;;
14116;SDS011;7137;51.436;6.544;2023-02-26T15:01:47;2.07;;;0.80;;
14116;SDS011;7137;51.436;6.544;2023-02-26T15:05:03;2.20;;;0.87;;
14116;SDS011;7137;51.436;6.544;2023-02-26T15:08:25;3.90;;;1.10;;
14116;SDS011;7137;51.436;6.544;2023-02-26T15:11:49;3.67;;;1.10;;
14116;SDS011;7137;51.436;6.544;2023-02-26T15:15:23;2.07;;;0.83;;
14116;SDS011;7137;51.436;6.544;2023-02-26T15:18:44;4.10;;;0.90;;
14116;SDS011;7137;51.436;6.544;2023-02-26T15:22:00;2.17;;;0.80;;
14116;SDS011;7137;51.436;6.544;2023-02-26T15:25:14;3.00;;;0.90;;
14116;SDS011;7137;51.436;6.544;2023-02-26T15:28:24;2.67;;;1.00;;
14116;SDS011;7137;51.436;6.544;2023-02-26T15:31:32;2.50;;;0.83;;
14116;SDS011;7137;51.436;6.544;2023-02-26T15:34:36;2.70;;;0.90;;
14116;SDS011;7137;51.436;6.544;2023-02-26T15:37:38;2.37;;;0.90;;
14116;SDS011;7137;51.436;6.544;2023-02-26T15:40:39;3.63;;;0.90;;
14116;SDS011;7137;51.436;6.544;2023-02-26T15:43:43;3.77;;;1.10;;
14116;SDS011;7137;51.436;6.544;2023-02-26T15:46:53;3.27;;;0.80;;
14116;SDS011;7137;51.436;6.544;2023-02-26T15:49:56;2.57;;;0.70;;
14116;SDS011;7137;51.436;6.544;2023-02-26T15:52:59;2.73;;;0.90;;
14116;SDS011;7137;51.436;6.544;2023-02-26T15:56:04;1.63;;;0.80;;
14116;SDS011;7137;51.436;6.544;2023-02-26T15:59:10;3.27;;;0.70;;
14116;SDS011;7137;51.436;6.544;2023-02-26T16:02:19;2.43;;;0.80;;
14116;SDS011;7137;51.436;6.544;2023-02-26T16:05:22;3.47;;;1.00;;
14116;SDS011;7137;51.436;6.544;2023-02-26T16:08:25;3.27;;;1.00;;
14116;SDS011;7137;51.436;6.544;2023-02-26T16:11:27;3.20;;;1.00;;
14116;SDS011;7137;51.436;6.544;2023-02-26T16:14:34;3.83;;;1.10;;
14116;SDS011;7137;51.436;6.544;2023-02-26T16:17:41;3.17;;;1.03;;
14116;SDS011;7137;51.436;6.544;2023-02-26T16:20:46;3.97;;;1.10;;
14116;SDS011;7137;51.436;6.544;2023-02-26T16:23:51;2.40;;;1.00;;
14116;SDS011;7137;51.436;6.544;2023-02-26T16:26:58;3.07;;;1.13;;
14116;SDS011;7137;51.436;6.544;2023-02-26T16:30:04;4.63;;;1.20;;
14116;SDS011;7137;51.436;6.544;2023-02-26T16:33:10;2.57;;;1.07;;
14116;SDS011;7137;51.436;6.544;2023-02-26T16:36:14;2.43;;;1.00;;
14116;SDS011;7137;51.436;6.544;2023-02-26T16:39:19;1.93;;;0.97;;
14116;SDS011;7137;51.436;6.544;2023-02-26T16:42:36;3.57;;;1.17;;
14116;SDS011;7137;51.436;6.544;2023-02-26T16:45:47;2.77;;;0.73;;
14116;SDS011;7137;51.436;6.544;2023-02-26T16:48:52;3.70;;;1.60;;
14116;SDS011;7137;51.436;6.544;2023-02-26T16:51:55;3.43;;;1.07;;
14116;SDS011;7137;51.436;6.544;2023-02-26T16:54:59;2.30;;;0.90;;
14116;SDS011;7137;51.436;6.544;2023-02-26T16:58:05;3.30;;;1.00;;
14116;SDS011;7137;51.436;6.544;2023-02-26T17:01:12;2.87;;;0.70;;
14116;SDS011;7137;51.436;6.544;2023-02-26T17:04:18;2.67;;;1.00;;
14116;SDS011;7137;51.436;6.544;2023-02-26T17:07:22;2.10;;;0.80;;
14116;SDS011;7137;51.436;6.544;2023-02-26T17:10:28;2.27;;;0.90;;
14116;SDS011;7137;51.436;6.544;2023-02-26T17:13:33;3.40;;;0.97;;
14116;SDS011;7137;51.436;6.544;2023-02-26T17:16:36;2.33;;;0.90;;
14116;SDS011;7137;51.436;6.544;2023-02-26T17:19:39;2.00;;;0.77;;
14116;SDS011;7137;51.436;6.544;2023-02-26T17:22:41;4.53;;;0.90;;
14116;SDS011;7137;51.436;6.544;2023-02-26T17:25:45;2.70;;;0.90;;
14116;SDS011;7137;51.436;6.544;2023-02-26T17:28:49;2.80;;;1.10;;
14116;SDS011;7137;51.436;6.544;2023-02-26T17:31:51;4.33;;;1.33;;
14116;SDS011;7137;51.436;6.544;2023-02-26T17:34:54;2.60;;;1.40;;
14116;SDS011;7137;51.436;6.544;2023-02-26T17:37:55;3.70;;;1.70;;
14116;SDS011;7137;51.436;6.544;2023-02-26T17:40:59;3.53;;;1.70;;
14116;SDS011;7137;51.436;6.544;2023-02-26T17:44:01;2.63;;;1.20;;
14116;SDS011;7137;51.436;6.544;2023-02-26T17:47:02;4.23;;;1.60;;
14116;SDS011;7137;51.436;6.544;2023-02-26T17:50:09;2.93;;;1.40;;
14116;SDS011;7137;51.436;6.544;2023-02-26T17:53:21;3.20;;;1.50;;
14116;SDS011;7137;51.436;6.544;2023-02-26T17:56:26;2.83;;;1.60;;
14116;SDS011;7137;51.436;6.544;2023-02-26T17:59:29;3.93;;;1.50;;
14116;SDS011;7137;51.436;6.544;2023-02-26T18:02:32;4.23;;;1.50;;
14116;SDS011;7137;51.436;6.544;2023-02-26T18:05:35;4.77;;;1.60;;
14116;SDS011;7137;51.436;6.544;2023-02-26T18:08:38;4.30;;;1.67;;
14116;SDS011;7137;51.436;6.544;2023-02-26T18:11:40;3.60;;;1.73;;
14116;SDS011;7137;51.436;6.544;2023-02-26T18:14:42;3.77;;;1.43;;
14116;SDS011;7137;51.436;6.544;2023-02-26T18:17:45;4.10;;;1.90;;
14116;SDS011;7137;51.436;6.544;2023-02-26T18:20:48;4.33;;;2.00;;
14116;SDS011;7137;51.436;6.544;2023-02-26T18:23:50;4.33;;;2.20;;
14116;SDS011;7137;51.436;6.544;2023-02-26T18:26:52;6.23;;;2.70;;
14116;SDS011;7137;51.436;6.544;2023-02-26T18:29:53;11.27;;;4.87;;
14116;SDS011;7137;51.436;6.544;2023-02-26T18:32:58;28.63;;;15.27;;
14116;SDS011;7137;51.436;6.544;2023-02-26T18:36:01;16.40;;;9.90;;
14116;SDS011;7137;51.436;6.544;2023-02-26T18:39:03;6.90;;;4.10;;
14116;SDS011;7137;51.436;6.544;2023-02-26T18:42:09;5.63;;;3.00;;
14116;SDS011;7137;51.436;6.544;2023-02-26T18:45:19;5.77;;;2.70;;
14116;SDS011;7137;51.436;6.544;2023-02-26T18:48:21;5.50;;;2.70;;
14116;SDS011;7137;51.436;6.544;2023-02-26T18:51:24;6.43;;;2.80;;
14116;SDS011;7137;51.436;6.544;2023-02-26T18:54:25;4.70;;;2.80;;
14116;SDS011;7137;51.436;6.544;2023-02-26T18:57:27;6.07;;;3.20;;
14116;SDS011;7137;51.436;6.544;2023-02-26T19:00:29;5.60;;;3.10;;
14116;SDS011;7137;51.436;6.544;2023-02-26T19:03:31;5.67;;;2.67;;
14116;SDS011;7137;51.436;6.544;2023-02-26T19:06:34;4.97;;;2.53;;
14116;SDS011;7137;51.436;6.544;2023-02-26T19:09:36;4.33;;;2.50;;
14116;SDS011;7137;51.436;6.544;2023-02-26T19:12:38;6.37;;;3.17;;
14116;SDS011;7137;51.436;6.544;2023-02-26T19:15:39;6.23;;;2.73;;
14116;SDS011;7137;51.436;6.544;2023-02-26T19:18:41;3.77;;;1.77;;
14116;SDS011;7137;51.436;6.544;2023-02-26T19:21:44;3.83;;;1.67;;